createdAt,value
2023-03-29T00:02:02.490Z,7.50
2023-03-29T00:04:29.235Z,7.20
2023-03-29T00:06:56.286Z,7.70
2023-03-29T00:09:23.335Z,8.10
2023-03-29T00:11:49.978Z,8.20
2023-03-29T00:14:16.697Z,7.27
2023-03-29T00:16:44.969Z,7.70
2023-03-29T00:19:11.800Z,7.57
2023-03-29T00:21:38.580Z,8.33
2023-03-29T00:24:05.483Z,8.23
2023-03-29T00:26:32.078Z,7.77
2023-03-29T00:28:58.784Z,8.23
2023-03-29T00:31:26.116Z,8.13
2023-03-29T00:33:53.097Z,7.77
2023-03-29T00:36:19.791Z,7.50
2023-03-29T00:38:46.706Z,7.17
2023-03-29T00:41:13.852Z,8.20
2023-03-29T00:43:56.251Z,8.00
2023-03-29T00:46:24.110Z,8.03
2023-03-29T00:48:53.833Z,8.10
2023-03-29T00:51:22.591Z,8.67
2023-03-29T00:53:53.082Z,8.23
2023-03-29T00:56:35.170Z,8.00
2023-03-29T00:59:09.900Z,7.67
2023-03-29T01:01:42.727Z,7.13
2023-03-29T01:04:23.987Z,7.63
2023-03-29T01:06:59.228Z,6.90
2023-03-29T01:09:29.829Z,7.00
2023-03-29T01:12:00.948Z,7.07
2023-03-29T01:14:38.768Z,8.10
2023-03-29T01:17:06.492Z,7.50
2023-03-29T01:19:47.430Z,6.50
2023-03-29T01:22:51.375Z,6.87
2023-03-29T01:25:21.055Z,6.10
2023-03-29T01:27:49.903Z,6.70
2023-03-29T01:30:23.600Z,6.30
2023-03-29T01:33:07.489Z,5.80
2023-03-29T01:35:40.196Z,5.80
2023-03-29T01:38:15.402Z,5.87
2023-03-29T01:40:42.233Z,5.53
2023-03-29T01:43:24.060Z,5.20
2023-03-29T01:46:26.454Z,4.87
2023-03-29T01:49:13.420Z,4.60
2023-03-29T01:52:08.779Z,4.83
2023-03-29T01:54:40.555Z,4.80
2023-03-29T01:57:10.431Z,4.40
2023-03-29T01:59:41.520Z,4.30
2023-03-29T02:02:14.754Z,4.53
2023-03-29T02:04:48.927Z,5.63
2023-03-29T02:07:18.702Z,4.17
2023-03-29T02:09:47.085Z,4.60
2023-03-29T02:12:16.847Z,4.33
2023-03-29T02:14:43.996Z,5.67
2023-03-29T02:17:25.570Z,4.37
2023-03-29T02:20:01.795Z,3.83
2023-03-29T02:22:42.135Z,3.87
2023-03-29T02:25:09.465Z,4.60
2023-03-29T02:27:37.855Z,5.33
2023-03-29T02:30:07.169Z,3.63
2023-03-29T02:32:42.907Z,3.90
2023-03-29T02:35:18.082Z,3.77
2023-03-29T02:37:47.643Z,4.27
2023-03-29T02:40:15.558Z,3.90
2023-03-29T02:42:45.701Z,3.70
2023-03-29T02:45:16.237Z,3.60
2023-03-29T02:47:46.534Z,4.57
2023-03-29T02:50:13.491Z,3.53
2023-03-29T02:52:44.745Z,3.70
2023-03-29T02:55:15.963Z,5.43
2023-03-29T02:57:43.810Z,3.47
2023-03-29T03:00:12.001Z,3.33
2023-03-29T03:02:38.757Z,3.77
2023-03-29T03:05:06.351Z,4.13
2023-03-29T03:07:33.726Z,3.50
2023-03-29T03:10:00.788Z,3.63
2023-03-29T03:12:27.486Z,4.53
2023-03-29T03:14:54.661Z,4.77
2023-03-29T03:17:23.050Z,3.30
2023-03-29T03:19:49.873Z,4.73
2023-03-29T03:22:16.486Z,4.33
2023-03-29T03:24:43.111Z,3.50
2023-03-29T03:27:09.744Z,3.70
2023-03-29T03:29:38.462Z,4.60
2023-03-29T03:32:05.514Z,3.30
2023-03-29T03:34:32.289Z,5.73
2023-03-29T03:37:01.591Z,3.27
2023-03-29T03:39:28.202Z,5.00
2023-03-29T03:41:54.827Z,4.77
2023-03-29T03:44:21.500Z,4.57
2023-03-29T03:46:48.120Z,5.13
2023-03-29T03:49:14.748Z,5.10
2023-03-29T03:51:44.300Z,4.03
2023-03-29T03:54:11.158Z,4.03
2023-03-29T03:56:37.835Z,3.77
2023-03-29T03:59:05.514Z,6.53
2023-03-29T04:01:33.418Z,3.70
2023-03-29T04:04:00.100Z,3.87
2023-03-29T04:06:30.490Z,3.80
2023-03-29T04:08:57.827Z,6.60
2023-03-29T04:11:24.516Z,3.73
2023-03-29T04:13:51.135Z,4.57
2023-03-29T04:16:17.796Z,4.90
2023-03-29T04:18:44.527Z,3.80
2023-03-29T04:21:11.260Z,5.47
2023-03-29T04:23:38.009Z,4.67
2023-03-29T04:26:04.926Z,5.87
2023-03-29T04:28:31.505Z,5.90
2023-03-29T04:30:58.176Z,3.97
2023-03-29T04:33:24.804Z,3.93
2023-03-29T04:35:51.979Z,4.67
2023-03-29T04:38:23.120Z,17.07
2023-03-29T04:40:50.648Z,4.60
2023-03-29T04:43:17.254Z,6.80
2023-03-29T04:45:43.909Z,5.13
2023-03-29T04:48:10.675Z,5.90
2023-03-29T04:50:37.453Z,6.57
2023-03-29T04:53:04.088Z,5.30
2023-03-29T04:55:30.792Z,6.93
2023-03-29T04:57:57.508Z,6.40
2023-03-29T05:00:27.316Z,6.63
2023-03-29T05:02:54.214Z,10.37
2023-03-29T05:05:21.099Z,6.33
2023-03-29T05:07:47.911Z,5.80
2023-03-29T05:10:14.912Z,5.50
2023-03-29T05:12:41.683Z,5.43
2023-03-29T05:15:09.695Z,5.40
2023-03-29T05:17:36.340Z,7.13
2023-03-29T05:20:09.610Z,5.63
2023-03-29T05:22:36.540Z,4.90
2023-03-29T05:25:03.469Z,5.77
2023-03-29T05:27:30.731Z,5.60
2023-03-29T05:29:57.324Z,7.83
2023-03-29T05:32:24.006Z,5.43
2023-03-29T05:34:50.653Z,7.17
2023-03-29T05:37:17.821Z,6.13
2023-03-29T05:39:45.164Z,6.00
2023-03-29T05:42:15.765Z,9.13
2023-03-29T05:44:42.542Z,6.57
2023-03-29T05:47:09.186Z,7.37
2023-03-29T05:49:37.894Z,7.07
2023-03-29T05:52:04.538Z,7.17
2023-03-29T05:54:31.171Z,6.50
2023-03-29T05:56:57.843Z,7.90
2023-03-29T05:59:24.639Z,8.10
2023-03-29T06:01:51.939Z,7.87
2023-03-29T06:04:18.916Z,7.80
2023-03-29T06:06:46.277Z,7.53
2023-03-29T06:09:12.886Z,9.30
2023-03-29T06:11:39.585Z,9.97
2023-03-29T06:14:06.278Z,9.37
2023-03-29T06:16:32.963Z,10.20
2023-03-29T06:18:59.783Z,11.07
2023-03-29T06:21:27.235Z,8.27
2023-03-29T06:23:54.040Z,11.17
2023-03-29T06:26:20.882Z,12.00
2023-03-29T06:28:51.383Z,10.67
2023-03-29T06:31:19.951Z,8.33
2023-03-29T06:33:47.697Z,9.40
2023-03-29T06:36:16.218Z,9.07
2023-03-29T06:38:45.395Z,8.93
2023-03-29T06:41:12.126Z,9.70
2023-03-29T06:43:38.872Z,8.73
2023-03-29T06:46:11.622Z,9.27
2023-03-29T06:48:39.116Z,8.77
2023-03-29T06:51:07.600Z,9.33
2023-03-29T06:53:34.970Z,9.23
2023-03-29T06:56:05.367Z,9.43
2023-03-29T06:58:32.067Z,9.33
2023-03-29T07:01:02.390Z,10.00
2023-03-29T07:03:29.279Z,8.20
2023-03-29T07:06:09.653Z,8.03
2023-03-29T07:08:43.386Z,8.67
2023-03-29T07:11:13.201Z,8.57
2023-03-29T07:13:42.428Z,8.97
2023-03-29T07:16:12.754Z,8.37
2023-03-29T07:18:41.497Z,7.80
2023-03-29T07:21:08.728Z,7.63
2023-03-29T07:23:36.017Z,8.17
2023-03-29T07:26:02.785Z,7.97
2023-03-29T07:28:29.822Z,8.10
2023-03-29T07:31:06.701Z,7.37
2023-03-29T07:33:34.473Z,9.47
2023-03-29T07:36:01.953Z,8.43
2023-03-29T07:38:28.884Z,7.40
2023-03-29T07:40:56.137Z,7.63
2023-03-29T07:43:24.047Z,9.73
2023-03-29T07:45:52.647Z,9.30
2023-03-29T07:48:19.661Z,18.83
2023-03-29T07:50:46.715Z,9.97
2023-03-29T07:53:13.576Z,13.10
2023-03-29T07:55:47.358Z,10.87
2023-03-29T07:58:14.645Z,10.67
2023-03-29T08:00:43.451Z,13.20
2023-03-29T08:03:13.532Z,11.20
2023-03-29T08:05:41.960Z,9.73
2023-03-29T08:08:09.880Z,10.30
2023-03-29T08:10:39.323Z,10.13
2023-03-29T08:13:08.416Z,9.47
2023-03-29T08:15:39.891Z,10.47
2023-03-29T08:18:07.886Z,10.47
2023-03-29T08:20:34.919Z,12.43
2023-03-29T08:23:01.760Z,11.70
2023-03-29T08:25:28.400Z,11.80
2023-03-29T08:27:55.045Z,11.57
2023-03-29T08:30:22.083Z,11.47
2023-03-29T08:32:52.190Z,11.10
2023-03-29T08:35:21.178Z,11.33
2023-03-29T08:37:47.842Z,11.20
2023-03-29T08:40:23.842Z,12.30
2023-03-29T08:43:11.862Z,12.27
2023-03-29T08:45:44.234Z,11.53
2023-03-29T08:48:31.879Z,12.03
2023-03-29T08:51:05.176Z,12.13
2023-03-29T08:53:44.134Z,12.47
2023-03-29T08:56:18.434Z,12.15
2023-03-29T08:58:47.069Z,12.47
2023-03-29T09:01:13.798Z,12.17
2023-03-29T09:04:00.449Z,11.90
2023-03-29T09:06:27.450Z,11.70
2023-03-29T09:08:54.588Z,12.15
2023-03-29T09:11:24.239Z,12.33
2023-03-29T09:14:08.644Z,12.67
2023-03-29T09:16:49.637Z,12.77
2023-03-29T09:19:31.695Z,12.90
2023-03-29T09:22:24.266Z,13.00
2023-03-29T09:25:25.250Z,13.15
2023-03-29T09:28:04.961Z,12.95
2023-03-29T09:30:41.565Z,13.88
2023-03-29T09:33:24.573Z,12.52
2023-03-29T09:35:57.479Z,12.82
2023-03-29T09:38:24.205Z,12.10
2023-03-29T09:40:58.563Z,12.77
2023-03-29T09:43:41.022Z,12.73
2023-03-29T09:46:23.422Z,12.75
2023-03-29T09:48:51.551Z,12.60
2023-03-29T09:51:21.614Z,11.88
2023-03-29T09:53:48.972Z,12.55
2023-03-29T09:56:15.928Z,12.93
2023-03-29T09:58:44.108Z,12.32
2023-03-29T10:01:15.721Z,13.38
2023-03-29T10:03:47.380Z,13.27
2023-03-29T10:06:14.616Z,13.20
2023-03-29T10:08:50.500Z,13.27
2023-03-29T10:11:20.254Z,13.52
2023-03-29T10:13:50.590Z,12.70
2023-03-29T10:16:23.902Z,12.80
2023-03-29T10:18:50.988Z,13.45
2023-03-29T10:21:20.843Z,13.38
2023-03-29T10:23:49.019Z,12.73
2023-03-29T10:26:32.725Z,12.60
2023-03-29T10:29:02.639Z,13.63
2023-03-29T10:31:33.637Z,13.15
2023-03-29T10:34:06.394Z,13.00
2023-03-29T10:36:33.380Z,12.45
2023-03-29T10:39:05.595Z,12.63
2023-03-29T10:41:35.307Z,13.07
2023-03-29T10:44:02.523Z,13.30
2023-03-29T10:46:32.463Z,13.68
2023-03-29T10:49:14.948Z,13.30
2023-03-29T10:51:48.068Z,13.50
2023-03-29T10:54:20.427Z,13.70
2023-03-29T10:57:02.319Z,12.38
2023-03-29T10:59:46.313Z,12.93
2023-03-29T11:02:16.953Z,13.02
2023-03-29T11:04:52.489Z,14.20
2023-03-29T11:07:39.905Z,13.40
2023-03-29T11:10:41.387Z,13.48
2023-03-29T11:13:21.148Z,13.73
2023-03-29T11:16:12.709Z,13.48
2023-03-29T11:19:04.461Z,13.18
2023-03-29T11:21:46.839Z,13.77
2023-03-29T11:24:47.441Z,13.45
2023-03-29T11:27:31.697Z,13.18
2023-03-29T11:30:13.186Z,14.32
2023-03-29T11:33:04.394Z,13.77
2023-03-29T11:35:39.890Z,13.85
2023-03-29T11:38:09.514Z,13.45
2023-03-29T11:40:50.126Z,13.68
2023-03-29T11:43:39.489Z,13.75
2023-03-29T11:46:25.750Z,13.65
2023-03-29T11:49:18.346Z,14.60
2023-03-29T11:51:54.327Z,13.27
2023-03-29T11:54:30.879Z,14.02
2023-03-29T11:57:10.132Z,13.57
2023-03-29T11:59:43.094Z,14.20
2023-03-29T12:02:33.562Z,13.27
2023-03-29T12:05:10.846Z,12.52
2023-03-29T12:07:43.956Z,12.20
2023-03-29T12:10:30.884Z,13.38
2023-03-29T12:13:07.304Z,13.70
2023-03-29T12:15:43.795Z,13.57
2023-03-29T12:18:20.015Z,12.63
2023-03-29T12:20:52.662Z,12.85
2023-03-29T12:23:19.482Z,12.00
2023-03-29T12:26:02.413Z,12.73
2023-03-29T12:28:48.968Z,12.73
2023-03-29T12:31:23.936Z,12.68
2023-03-29T12:34:16.676Z,12.00
2023-03-29T12:37:00.437Z,13.02
2023-03-29T12:39:29.351Z,12.27
2023-03-29T12:42:19.489Z,12.80
2023-03-29T12:45:16.474Z,12.52
2023-03-29T12:47:47.251Z,11.90
2023-03-29T12:50:44.266Z,11.25
2023-03-29T12:53:18.083Z,12.40
2023-03-29T12:55:44.703Z,11.57
2023-03-29T12:58:27.345Z,11.93
2023-03-29T13:01:05.941Z,12.05
2023-03-29T13:03:35.852Z,12.13
2023-03-29T13:06:05.980Z,12.48
2023-03-29T13:08:45.903Z,12.50
2023-03-29T13:11:29.247Z,12.85
2023-03-29T13:13:57.324Z,12.57
2023-03-29T13:16:33.657Z,12.52
2023-03-29T13:19:39.411Z,12.52
2023-03-29T13:22:31.181Z,12.38
2023-03-29T13:25:36.403Z,12.73
2023-03-29T13:28:18.120Z,12.25
2023-03-29T13:33:57.123Z,12.38
2023-03-29T13:36:49.723Z,12.93
2023-03-29T13:39:22.537Z,12.52
2023-03-29T13:41:53.196Z,12.10
2023-03-29T13:44:22.648Z,12.02
2023-03-29T13:47:00.816Z,12.40
2023-03-29T13:49:31.761Z,12.88
2023-03-29T13:52:21.305Z,12.23
2023-03-29T13:55:06.070Z,12.57
2023-03-29T13:57:42.431Z,12.57
2023-03-29T14:00:36.789Z,13.00
2023-03-29T14:03:09.491Z,12.35
2023-03-29T14:05:39.773Z,12.45
2023-03-29T14:08:25.010Z,12.63
2023-03-29T14:10:53.632Z,12.25
2023-03-29T14:13:23.145Z,12.60
2023-03-29T14:15:54.731Z,12.70
2023-03-29T14:18:25.402Z,12.70
2023-03-29T14:20:55.089Z,12.13
2023-03-29T14:23:25.256Z,12.45
2023-03-29T14:25:52.261Z,12.32
2023-03-29T14:28:28.075Z,12.55
2023-03-29T14:30:55.992Z,12.38
2023-03-29T14:33:34.468Z,12.60
2023-03-29T14:36:06.347Z,12.65
2023-03-29T14:38:37.205Z,12.82
2023-03-29T14:41:04.269Z,12.57
2023-03-29T14:43:32.132Z,12.68
2023-03-29T14:46:02.761Z,12.88
2023-03-29T14:48:33.041Z,13.30
2023-03-29T14:51:00.597Z,13.35
2023-03-29T14:53:30.549Z,12.80
2023-03-29T14:55:57.525Z,13.00
2023-03-29T14:58:35.533Z,12.93
2023-03-29T15:01:13.273Z,12.43
2023-03-29T15:03:45.919Z,12.88
2023-03-29T15:06:13.725Z,12.65
2023-03-29T15:08:50.783Z,12.00
2023-03-29T15:11:27.544Z,12.23
2023-03-29T15:14:06.257Z,12.23
2023-03-29T15:16:33.736Z,12.35
2023-03-29T15:19:01.831Z,12.43
2023-03-29T15:21:39.036Z,12.15
2023-03-29T15:24:06.135Z,12.98
2023-03-29T15:26:36.030Z,12.82
2023-03-29T15:29:10.114Z,12.70
2023-03-29T15:31:39.283Z,12.57
2023-03-29T15:34:12.795Z,12.48
2023-03-29T15:36:46.377Z,12.68
2023-03-29T15:39:15.257Z,12.93
2023-03-29T15:41:43.600Z,12.73
2023-03-29T15:44:11.056Z,12.70
2023-03-29T15:46:37.969Z,12.30
2023-03-29T15:49:05.046Z,12.57
2023-03-29T15:51:31.968Z,12.82
2023-03-29T15:53:58.587Z,12.65
2023-03-29T15:56:26.637Z,12.13
2023-03-29T15:58:53.278Z,11.88
2023-03-29T16:01:34.452Z,12.30
2023-03-29T16:04:22.204Z,12.70
2023-03-29T16:06:52.803Z,12.02
2023-03-29T16:09:21.450Z,11.93
2023-03-29T16:11:49.555Z,12.63
2023-03-29T16:14:24.190Z,12.38
2023-03-29T16:16:52.300Z,12.75
2023-03-29T16:19:19.429Z,12.68
2023-03-29T16:21:46.173Z,12.60
2023-03-29T16:24:22.360Z,12.80
2023-03-29T16:26:49.907Z,13.20
2023-03-29T16:29:18.063Z,12.32
2023-03-29T16:31:46.754Z,13.30
2023-03-29T16:34:14.066Z,12.48
2023-03-29T16:36:41.151Z,11.98
2023-03-29T16:39:07.846Z,12.40
2023-03-29T16:41:34.536Z,12.30
2023-03-29T16:44:01.167Z,11.70
2023-03-29T16:46:27.916Z,12.35
2023-03-29T16:48:54.585Z,12.18
2023-03-29T16:51:21.656Z,12.93
2023-03-29T16:53:49.078Z,12.85
2023-03-29T16:56:15.775Z,13.00
2023-03-29T16:58:42.516Z,12.57
2023-03-29T17:01:11.621Z,12.50
2023-03-29T17:03:39.000Z,12.82
2023-03-29T17:06:06.842Z,12.00
2023-03-29T17:08:34.365Z,12.80
2023-03-29T17:11:01.453Z,12.43
2023-03-29T17:13:28.225Z,12.65
2023-03-29T17:15:56.313Z,12.15
2023-03-29T17:18:25.245Z,11.85
2023-03-29T17:20:55.220Z,11.93
2023-03-29T17:23:21.974Z,12.30
2023-03-29T17:25:48.697Z,12.15
2023-03-29T17:28:15.433Z,12.00
2023-03-29T17:30:44.671Z,12.48
2023-03-29T17:33:13.488Z,12.40
2023-03-29T17:35:44.254Z,12.77
2023-03-29T17:38:11.690Z,12.38
2023-03-29T17:40:39.213Z,12.18
2023-03-29T17:43:06.023Z,12.13
2023-03-29T17:45:33.077Z,12.38
2023-03-29T17:47:59.733Z,12.05
2023-03-29T17:50:27.010Z,12.30
2023-03-29T17:52:53.599Z,12.85
2023-03-29T17:55:21.016Z,14.02
2023-03-29T17:57:48.971Z,12.65
2023-03-29T18:00:16.284Z,12.68
2023-03-29T18:02:43.290Z,12.70
2023-03-29T18:05:10.763Z,12.27
2023-03-29T18:07:37.536Z,12.25
2023-03-29T18:10:04.911Z,12.10
2023-03-29T18:12:31.689Z,12.73
2023-03-29T18:14:58.804Z,12.85
2023-03-29T18:17:27.346Z,12.48
2023-03-29T18:19:54.139Z,12.43
2023-03-29T18:22:20.973Z,12.02
2023-03-29T18:24:49.231Z,11.98
2023-03-29T18:27:16.031Z,12.57
2023-03-29T18:29:44.033Z,12.57
2023-03-29T18:32:11.443Z,12.25
2023-03-29T18:34:39.287Z,12.20
2023-03-29T18:37:06.317Z,12.67
2023-03-29T18:39:34.668Z,12.87
2023-03-29T18:42:01.718Z,12.10
2023-03-29T18:44:29.018Z,12.68
2023-03-29T18:46:56.311Z,12.98
2023-03-29T18:49:25.722Z,12.63
2023-03-29T18:51:52.501Z,12.90
2023-03-29T18:54:19.251Z,12.55
2023-03-29T18:56:45.955Z,12.77
2023-03-29T18:59:12.988Z,12.00
2023-03-29T19:01:39.743Z,12.05
2023-03-29T19:04:06.558Z,11.75
2023-03-29T19:06:33.275Z,11.60
2023-03-29T19:09:02.083Z,12.00
2023-03-29T19:11:29.604Z,12.00
2023-03-29T19:13:56.766Z,12.05
2023-03-29T19:16:23.701Z,12.70
2023-03-29T19:18:50.501Z,12.50
2023-03-29T19:21:17.120Z,12.07
2023-03-29T19:23:43.786Z,12.60
2023-03-29T19:26:11.511Z,11.90
2023-03-29T19:28:38.296Z,12.07
2023-03-29T19:31:05.266Z,12.13
2023-03-29T19:33:32.310Z,12.27
2023-03-29T19:35:59.144Z,12.85
2023-03-29T19:38:25.952Z,12.38
2023-03-29T19:40:52.863Z,12.40
2023-03-29T19:43:20.676Z,12.05
2023-03-29T19:45:49.258Z,12.20
2023-03-29T19:48:23.573Z,12.13
2023-03-29T19:50:51.488Z,12.02
2023-03-29T19:53:18.202Z,11.98
2023-03-29T19:55:45.390Z,12.35
2023-03-29T19:58:12.897Z,14.20
2023-03-29T20:00:39.961Z,12.07
2023-03-29T20:03:10.453Z,11.85
2023-03-29T20:05:38.671Z,12.32
2023-03-29T20:08:06.512Z,11.95
2023-03-29T20:10:33.777Z,12.20
2023-03-29T20:13:00.688Z,14.18
2023-03-29T20:15:27.542Z,13.30
2023-03-29T20:17:58.469Z,13.13
2023-03-29T20:20:26.745Z,12.80
2023-03-29T20:23:05.203Z,11.97
2023-03-29T20:25:34.939Z,12.57
2023-03-29T20:28:01.777Z,12.02
2023-03-29T20:30:28.563Z,12.18
2023-03-29T20:32:55.653Z,12.68
2023-03-29T20:35:22.356Z,12.68
2023-03-29T20:37:49.067Z,12.13
2023-03-29T20:40:15.979Z,11.80
2023-03-29T20:42:42.922Z,12.88
2023-03-29T20:45:18.201Z,12.40
2023-03-29T20:47:56.071Z,12.27
2023-03-29T20:50:28.782Z,11.70
2023-03-29T20:52:56.665Z,12.02
2023-03-29T20:55:24.482Z,12.10
2023-03-29T20:57:58.136Z,12.25
2023-03-29T21:00:27.202Z,11.10
2023-03-29T21:02:58.738Z,11.02
2023-03-29T21:05:28.343Z,11.23
2023-03-29T21:07:55.058Z,11.63
2023-03-29T21:10:23.631Z,11.90
2023-03-29T21:13:00.311Z,12.50
2023-03-29T21:15:30.543Z,11.70
2023-03-29T21:17:57.958Z,11.90
2023-03-29T21:20:25.091Z,12.27
2023-03-29T21:22:51.751Z,11.90
2023-03-29T21:25:19.113Z,12.82
2023-03-29T21:27:46.165Z,12.10
2023-03-29T21:30:13.247Z,12.38
2023-03-29T21:32:39.974Z,11.25
2023-03-29T21:35:07.323Z,12.30
2023-03-29T21:37:33.964Z,12.10
2023-03-29T21:40:00.881Z,12.45
2023-03-29T21:42:27.702Z,11.90
2023-03-29T21:44:54.370Z,12.52
2023-03-29T21:47:21.067Z,12.07
2023-03-29T21:49:47.741Z,12.38
2023-03-29T21:52:14.433Z,13.10
2023-03-29T21:54:41.159Z,12.35
2023-03-29T21:57:08.294Z,12.75
2023-03-29T21:59:35.205Z,12.40
2023-03-29T22:02:01.892Z,10.90
2023-03-29T22:04:36.587Z,11.00
2023-03-29T22:07:04.738Z,11.95
2023-03-29T22:09:34.576Z,10.80
2023-03-29T22:12:01.627Z,11.95
2023-03-29T22:14:31.098Z,11.65
2023-03-29T22:16:57.843Z,11.43
2023-03-29T22:19:24.530Z,11.38
2023-03-29T22:21:51.452Z,12.02
2023-03-29T22:24:18.456Z,12.52
2023-03-29T22:26:45.148Z,12.63
2023-03-29T22:29:11.959Z,12.48
2023-03-29T22:31:39.351Z,12.02
2023-03-29T22:34:06.589Z,13.10
2023-03-29T22:36:33.549Z,13.00
2023-03-29T22:39:00.577Z,12.43
2023-03-29T22:41:29.214Z,12.27
2023-03-29T22:43:57.764Z,11.73
2023-03-29T22:46:25.099Z,12.02
2023-03-29T22:48:52.339Z,12.90
2023-03-29T22:51:20.024Z,11.82
2023-03-29T22:53:47.093Z,12.15
2023-03-29T22:56:15.483Z,11.68
2023-03-29T22:58:42.697Z,11.73
2023-03-29T23:01:09.538Z,10.52
2023-03-29T23:03:36.749Z,10.77
2023-03-29T23:06:04.133Z,11.35
2023-03-29T23:08:32.419Z,11.65
2023-03-29T23:10:59.203Z,11.48
2023-03-29T23:13:28.721Z,11.00
2023-03-29T23:15:58.848Z,10.83
2023-03-29T23:18:27.636Z,10.80
2023-03-29T23:20:56.646Z,12.03
2023-03-29T23:23:24.714Z,11.50
2023-03-29T23:25:53.297Z,11.50
2023-03-29T23:28:23.477Z,12.00
2023-03-29T23:30:57.011Z,11.88
2023-03-29T23:33:25.626Z,11.82
2023-03-29T23:35:53.266Z,11.97
2023-03-29T23:38:20.807Z,12.45
2023-03-29T23:40:59.164Z,12.47
2023-03-29T23:43:27.236Z,13.40
2023-03-29T23:45:57.834Z,13.05
2023-03-29T23:48:25.290Z,12.67
2023-03-29T23:50:52.392Z,14.05
2023-03-29T23:53:20.799Z,12.47
2023-03-29T23:55:48.403Z,12.57
2023-03-29T23:58:16.468Z,12.30
